createdAt,value
2022-11-24T00:06:55.547Z,1.10
2022-11-24T00:16:59.222Z,0.47
2022-11-24T00:27:04.325Z,0.87
2022-11-24T00:37:07.995Z,0.80
2022-11-24T00:47:13.220Z,1.10
2022-11-24T00:57:16.969Z,0.80
2022-11-24T01:07:22.069Z,0.60
2022-11-24T01:17:26.786Z,1.20
2022-11-24T01:27:31.829Z,0.53
2022-11-24T01:37:35.575Z,0.70
2022-11-24T01:47:42.210Z,0.93
2022-11-24T01:57:49.684Z,0.67
2022-11-24T02:07:57.030Z,0.40
2022-11-24T02:18:00.740Z,0.70
2022-11-24T02:28:09.963Z,0.60
2022-11-24T02:38:14.958Z,0.90
2022-11-24T02:48:20.046Z,0.83
2022-11-24T02:58:23.870Z,1.00
2022-11-24T03:08:28.930Z,0.70
2022-11-24T03:18:32.582Z,0.50
2022-11-24T03:28:38.074Z,1.57
2022-11-24T03:38:41.732Z,0.63
2022-11-24T03:48:46.826Z,0.90
2022-11-24T03:58:50.965Z,0.50
2022-11-24T04:08:56.059Z,0.97
2022-11-24T04:18:59.766Z,0.40
2022-11-24T04:29:05.022Z,1.07
2022-11-24T04:39:25.670Z,0.40
2022-11-24T04:49:31.799Z,0.40
2022-11-24T04:59:35.512Z,0.80
2022-11-24T05:10:00.764Z,0.67
2022-11-24T05:20:07.230Z,0.90
2022-11-24T05:30:13.918Z,0.70
2022-11-24T05:40:18.280Z,1.00
2022-11-24T05:50:24.172Z,1.00
2022-11-24T06:00:28.728Z,1.27
2022-11-24T06:10:33.783Z,1.13
2022-11-24T06:20:37.542Z,0.97
2022-11-24T06:30:43.312Z,0.90
2022-11-24T06:40:47.115Z,0.57
2022-11-24T06:50:53.064Z,0.60
2022-11-24T07:00:57.093Z,0.67
2022-11-24T07:11:07.058Z,0.50
2022-11-24T07:21:11.663Z,1.13
2022-11-24T07:31:20.463Z,0.57
2022-11-24T07:41:24.292Z,1.10
2022-11-24T07:51:29.374Z,0.57
2022-11-24T08:01:33.604Z,0.50
2022-11-24T08:11:38.746Z,0.50
2022-11-24T08:21:42.414Z,1.10
2022-11-24T08:31:47.493Z,2.03
2022-11-24T08:41:51.210Z,0.30
2022-11-24T08:51:58.494Z,0.20
2022-11-24T09:02:02.375Z,0.57
2022-11-24T09:12:14.289Z,1.60
2022-11-24T09:22:19.181Z,1.17
2022-11-24T09:32:24.450Z,1.03
2022-11-24T09:42:41.112Z,0.70
2022-11-24T09:52:54.440Z,0.93
2022-11-24T10:02:59.385Z,0.40
2022-11-24T10:13:25.620Z,0.93
2022-11-24T10:23:47.242Z,0.67
2022-11-24T10:33:52.730Z,0.50
2022-11-24T10:43:59.848Z,0.70
2022-11-24T10:54:15.599Z,0.33
2022-11-24T11:04:23.948Z,0.83
2022-11-24T11:14:35.720Z,0.20
2022-11-24T11:24:41.162Z,0.53
2022-11-24T11:34:47.261Z,0.70
2022-11-24T11:44:56.456Z,0.60
2022-11-24T11:55:48.174Z,1.47
2022-11-24T12:06:09.204Z,0.90
2022-11-24T12:16:30.806Z,0.60
2022-11-24T12:26:43.965Z,0.37
2022-11-24T12:37:26.518Z,3.00
2022-11-24T12:47:46.353Z,0.60
2022-11-24T12:57:57.105Z,0.23
2022-11-24T13:08:04.632Z,0.77
2022-11-24T13:18:47.853Z,0.40
2022-11-24T13:29:13.025Z,0.93
2022-11-24T13:39:24.369Z,0.10
2022-11-24T13:49:39.267Z,1.60
2022-11-24T13:59:45.019Z,0.27
2022-11-24T14:09:51.545Z,0.40
2022-11-24T14:19:58.363Z,0.30
2022-11-24T14:30:05.275Z,0.50
2022-11-24T14:40:42.579Z,0.40
2022-11-24T14:50:46.551Z,0.50
2022-11-24T15:01:12.103Z,1.90
2022-11-24T15:11:16.547Z,0.40
2022-11-24T15:21:32.714Z,0.17
2022-11-24T15:31:36.633Z,0.63
2022-11-24T15:41:42.912Z,2.27
2022-11-24T15:51:47.855Z,0.50
2022-11-24T16:01:52.953Z,0.30
2022-11-24T16:11:56.715Z,0.50
2022-11-24T16:22:02.014Z,0.53
2022-11-24T16:32:07.542Z,0.30
2022-11-24T16:42:12.604Z,0.40
2022-11-24T16:52:16.821Z,1.20
2022-11-24T17:02:21.961Z,0.90
2022-11-24T17:12:25.936Z,2.13
2022-11-24T17:22:32.164Z,0.80
2022-11-24T17:32:36.265Z,1.70
2022-11-24T17:42:41.346Z,2.40
2022-11-24T17:52:45.230Z,2.60
2022-11-24T18:02:50.270Z,1.77
2022-11-24T18:12:54.210Z,2.20
2022-11-24T18:23:07.780Z,1.50
2022-11-24T18:33:11.491Z,2.00
2022-11-24T18:43:17.101Z,3.53
2022-11-24T18:53:22.447Z,3.23
2022-11-24T19:03:28.570Z,3.83
2022-11-24T19:13:32.317Z,3.00
2022-11-24T19:23:37.523Z,2.63
2022-11-24T19:33:42.220Z,2.00
2022-11-24T19:43:47.440Z,2.17
2022-11-24T19:53:51.236Z,2.00
2022-11-24T20:03:59.100Z,5.60
2022-11-24T20:14:03.134Z,4.37
2022-11-24T20:24:12.539Z,3.60
2022-11-24T20:34:16.868Z,3.07
2022-11-24T20:44:23.086Z,1.87
2022-11-24T20:54:26.852Z,1.93
2022-11-24T21:04:35.034Z,3.17
2022-11-24T21:14:38.990Z,2.43
2022-11-24T21:24:44.209Z,3.20
2022-11-24T21:34:47.892Z,3.30
2022-11-24T21:44:52.914Z,2.80
2022-11-24T21:54:56.572Z,1.90
2022-11-24T22:05:01.701Z,2.07
2022-11-24T22:15:07.266Z,1.97
2022-11-24T22:25:12.335Z,1.37
2022-11-24T22:35:16.613Z,1.43
2022-11-24T22:45:24.380Z,1.63
2022-11-24T22:55:28.068Z,2.37
2022-11-24T23:05:35.213Z,1.60
2022-11-24T23:15:38.878Z,1.60
2022-11-24T23:25:43.949Z,1.77
2022-11-24T23:35:47.587Z,1.67
2022-11-24T23:45:53.283Z,1.63
2022-11-24T23:55:57.089Z,1.23
